INFORMACIÓN METAR y TAF
METAR FOR LDDU
ADDS - METARS form results

(1953 UTC 16 October 2019)
Data provider http://aviationweather.gov/metar/data/
 
METAR text: LDDU 161930Z VRB01KT CAVOK 17/15 Q1018 NOSIG
Conditions at: LDDU (DUBROVNIK-CILIPI, HR) observed 1930 UTC 16 October 2019
Temperature: 17.0°C (63°F)
Dewpoint: 15.0°C (59°F) [RH = 88%]
Pressure (altimeter): 30.06 inches Hg (1018.0 mb)
Winds: variable direction winds at 1 MPH (1 knots; 0.5 m/s)
Visibility: 6 or more miles (10+ km)
Ceiling: ceiling and visibility are OK
Clouds: unknown
Weather: no significant weather observed at this time

METAR text: LDDU 161900Z 04002KT CAVOK 17/15 Q1018 NOSIG
Conditions at: LDDU (DUBROVNIK-CILIPI, HR) observed 1900 UTC 16 October 2019
Temperature: 17.0°C (63°F)
Dewpoint: 15.0°C (59°F) [RH = 88%]
Pressure (altimeter): 30.06 inches Hg (1018.0 mb)
Winds: from the NE (40 degrees) at 2 MPH (2 knots; 1.0 m/s)
Visibility: 6 or more miles (10+ km)
Ceiling: ceiling and visibility are OK
Clouds: unknown
Weather: no significant weather observed at this time

Forecast for: LDDU (DUBROVNIK-CILIPI, HR)
Text: TAF LDDU 161725Z 1618/1718 VRB02KT CAVOK TX22/1711Z TN15/1705Z
Forecast period: 1800 UTC 16 October 2019 to 1800 UTC 17 October 2019
Forecast type: FROM: standard forecast or significant change
Winds: variable direction winds at 2 MPH (2 knots; 1.0 m/s)
Visibility: 6 or more miles 10+ km)
Ceiling: unknown
Clouds: missing
Weather: no significant weather forecast for this period
Text: TEMPO 1712/1716 29007KT
Forecast period: 1200 to 1600 UTC 17 October 2019
Forecast type: TEMPORARY: The following changes expected for less than half the time period
Winds: from the WNW (290 degrees) at 8 MPH (7 knots; 3.6 m/s)
Visibility: missing
Ceiling: unknown
Clouds: missing
Weather: no significant weather forecast for this period

 MAPA DE AEROPUERTO

 INFORMACIÓN DE PISTA
Pista 12 Longitud 10827 ft Ancho 148 ft
Elevación 519 ft Umbral desplazado 488 ft Rumbo de pista 118
Pista 30 Longitud 10827 ft Ancho 148 ft
Elevación 484 ft Umbral desplazado 0 ft Rumbo de pista 298

 FRECUANCIAS DEL AEROPUERTO
Tipo APP Nombre APP Frecuencia 123.6 MHZ
Tipo TWR Nombre TWR Frecuencia 129.5 MHZ

 RADIO AYUDAS DEL AEROPUERTO
Tipo NDB Nombre Dubrovnik Frecuencia 397 KHZ
Tipo VOR-DME Nombre Dubrovnik Frecuencia 115400 KHZ
Tipo NDB Nombre Dubrovnik Frecuencia 414 KHZ
Tipo NDB Nombre Kolocep Frecuencia 318 KHZ